createdAt,value
2018-08-28T08:42:08.027Z,320.00
2018-08-28T08:43:04.313Z,320.00
2018-08-28T08:44:23.693Z,320.00
2018-08-28T08:45:02.646Z,320.00
2018-08-28T08:46:02.610Z,320.00
2018-08-28T08:47:02.619Z,328.00
2018-08-28T08:48:02.670Z,332.00
2018-08-28T08:49:02.669Z,336.00
2018-08-28T08:50:02.592Z,340.00
2018-08-28T08:51:02.598Z,344.00
2018-08-28T08:52:02.571Z,348.00
2018-08-28T08:53:02.624Z,352.00
2018-08-28T08:54:02.524Z,356.00
2018-08-28T08:55:02.672Z,364.00
2018-08-28T08:56:02.565Z,368.00
2018-08-28T08:57:02.563Z,376.00
2018-08-28T08:58:02.506Z,384.00
2018-08-28T08:59:02.661Z,392.00
2018-08-28T09:00:02.540Z,396.00
2018-08-28T09:01:02.506Z,396.00
2018-08-28T09:02:02.486Z,400.00
2018-08-28T09:03:02.507Z,400.00
2018-08-28T09:04:02.457Z,404.00
2018-08-28T09:05:02.466Z,404.00
2018-08-28T09:06:02.439Z,408.00
2018-08-28T09:07:02.400Z,424.00
2018-08-28T09:08:02.430Z,452.00
2018-08-28T09:09:02.425Z,472.00
2018-08-28T09:10:02.414Z,496.00
2018-08-28T09:11:02.395Z,516.00
2018-08-28T09:12:02.337Z,536.00
2018-08-28T09:13:02.335Z,556.00
2018-08-28T09:14:02.334Z,576.00
2018-08-28T09:15:02.341Z,576.00
2018-08-28T09:16:02.352Z,572.00
2018-08-28T09:17:02.360Z,576.00
2018-08-28T09:18:02.318Z,592.00
2018-08-28T09:19:02.276Z,612.00
2018-08-28T09:20:02.627Z,624.00
2018-08-28T09:21:02.293Z,640.00
2018-08-28T09:22:02.266Z,656.00
2018-08-28T09:23:02.264Z,684.00
2018-08-28T09:24:02.232Z,712.00
2018-08-28T09:25:02.247Z,736.00
2018-08-28T09:26:02.213Z,764.00
2018-08-28T09:27:02.284Z,820.00
2018-08-28T09:28:02.582Z,1028.00
2018-08-28T09:29:02.240Z,1208.00
2018-08-28T09:30:02.169Z,1284.00
2018-08-28T09:31:02.215Z,1532.00
2018-08-28T09:32:02.215Z,1168.00
2018-08-28T09:33:02.186Z,1464.00
2018-08-28T09:34:02.225Z,1484.00
2018-08-28T09:35:02.198Z,1124.00
2018-08-28T09:36:02.080Z,1012.00
2018-08-28T09:37:02.103Z,1008.00
2018-08-28T09:38:02.149Z,1032.00
2018-08-28T09:39:02.128Z,1348.00
2018-08-28T09:40:02.163Z,1460.00
2018-08-28T09:41:02.082Z,1248.00
2018-08-28T09:42:02.015Z,1336.00
2018-08-28T09:43:06.883Z,2832.00
2018-08-28T09:44:02.104Z,2844.00
2018-08-28T09:45:11.027Z,2868.00
2018-08-28T09:46:02.046Z,2848.00
2018-08-28T09:47:01.982Z,2804.00
2018-08-28T09:48:02.050Z,2780.00
2018-08-28T09:49:02.059Z,2740.00
2018-08-28T09:50:05.016Z,2692.00
2018-08-28T09:51:02.001Z,2676.00
2018-08-28T09:52:01.988Z,2608.00
2018-08-28T09:53:01.890Z,2612.00
2018-08-28T09:54:01.890Z,2600.00
2018-08-28T09:55:11.116Z,2608.00
2018-08-28T09:56:01.942Z,2604.00
2018-08-28T09:57:01.994Z,2576.00
2018-08-28T09:58:02.027Z,2552.00
2018-08-28T09:59:01.902Z,2580.00
2018-08-28T10:00:01.912Z,2580.00
2018-08-28T10:01:01.883Z,2616.00
2018-08-28T10:02:01.884Z,2612.00
2018-08-28T10:03:01.860Z,2588.00
2018-08-28T10:04:02.020Z,2544.00
2018-08-28T10:05:01.775Z,2424.00
2018-08-28T10:06:01.872Z,2308.00
2018-08-28T10:07:01.761Z,2320.00
2018-08-28T10:08:01.761Z,2312.00
2018-08-28T10:09:01.876Z,2152.00
2018-08-28T10:10:01.831Z,2104.00
2018-08-28T10:11:01.749Z,2152.00
2018-08-28T10:12:01.689Z,2148.00
2018-08-28T10:13:01.776Z,2020.00
2018-08-28T10:14:01.975Z,2128.00
2018-08-28T10:15:01.699Z,2376.00
2018-08-28T10:16:01.693Z,2380.00
2018-08-28T10:17:01.661Z,2396.00
2018-08-28T10:18:01.672Z,2376.00
2018-08-28T10:19:01.646Z,2356.00
2018-08-28T10:20:01.673Z,2360.00
2018-08-28T10:21:01.667Z,2344.00
2018-08-28T10:22:01.739Z,2324.00
2018-08-28T10:23:01.690Z,2308.00
2018-08-28T10:24:01.641Z,2252.00
2018-08-28T10:25:01.577Z,2236.00
2018-08-28T10:26:01.592Z,1984.00
2018-08-28T10:27:01.637Z,2056.00
2018-08-28T10:28:01.647Z,2076.00
2018-08-28T10:29:01.552Z,2084.00
2018-08-28T10:30:01.545Z,2076.00
2018-08-28T10:31:01.507Z,2116.00
2018-08-28T10:32:01.630Z,2132.00
2018-08-28T10:33:22.591Z,2124.00
2018-08-28T10:34:01.449Z,2140.00
2018-08-28T10:35:01.464Z,2160.00
2018-08-28T10:36:01.498Z,1896.00
2018-08-28T10:37:01.413Z,2176.00
2018-08-28T10:38:01.463Z,2136.00
2018-08-28T10:39:01.445Z,2100.00
2018-08-28T10:40:01.460Z,2120.00
2018-08-28T10:41:01.386Z,2108.00
2018-08-28T10:42:01.517Z,2112.00
2018-08-28T10:43:01.444Z,2092.00
2018-08-28T10:44:09.246Z,2084.00
2018-08-28T10:45:01.389Z,2080.00
2018-08-28T10:46:01.351Z,2040.00
2018-08-28T10:47:01.489Z,1988.00
2018-08-28T10:48:01.350Z,1940.00
2018-08-28T10:49:01.288Z,1944.00
2018-08-28T10:50:01.479Z,1924.00
2018-08-28T10:51:01.390Z,1912.00
2018-08-28T10:52:01.346Z,1908.00
2018-08-28T10:53:01.312Z,1904.00
2018-08-28T10:54:01.264Z,1892.00
2018-08-28T10:55:01.222Z,1876.00
2018-08-28T10:56:01.258Z,1876.00
2018-08-28T10:57:01.282Z,1864.00
2018-08-28T10:58:01.207Z,1848.00
2018-08-28T10:59:01.207Z,1832.00
2018-08-28T11:00:02.080Z,1808.00
2018-08-28T11:01:01.195Z,1812.00
2018-08-28T11:02:01.142Z,1816.00
2018-08-28T11:03:01.209Z,1804.00
2018-08-28T11:04:01.205Z,1788.00
2018-08-28T11:05:01.114Z,1784.00
2018-08-28T11:06:01.118Z,1792.00
2018-08-28T11:07:01.109Z,1768.00
2018-08-28T11:08:01.153Z,1764.00
2018-08-28T11:09:01.150Z,1744.00
2018-08-28T11:10:01.081Z,1720.00
2018-08-28T11:11:01.055Z,1728.00
2018-08-28T11:12:01.046Z,1708.00
2018-08-28T11:13:01.065Z,1716.00
2018-08-28T11:14:02.400Z,1700.00
2018-08-28T11:15:01.038Z,1704.00
2018-08-28T11:16:01.066Z,1696.00
2018-08-28T11:17:00.994Z,1708.00
2018-08-28T11:18:01.017Z,1700.00
2018-08-28T11:19:01.086Z,1680.00
2018-08-28T11:20:00.985Z,1668.00
2018-08-28T11:21:00.941Z,1656.00
2018-08-28T11:22:00.966Z,1592.00
2018-08-28T11:23:01.104Z,1624.00
2018-08-28T11:24:00.918Z,1608.00
2018-08-28T11:25:00.989Z,1656.00
2018-08-28T11:26:00.990Z,1604.00
2018-08-28T11:27:00.963Z,1596.00
2018-08-28T11:28:00.919Z,1500.00
2018-08-28T11:29:00.886Z,1316.00
2018-08-28T11:30:00.921Z,1316.00
2018-08-28T11:31:00.864Z,1384.00
2018-08-28T11:32:00.871Z,1544.00
2018-08-28T11:33:00.813Z,1584.00
2018-08-28T11:34:00.882Z,1596.00
2018-08-28T11:35:00.790Z,1536.00
2018-08-28T11:36:00.828Z,1220.00
2018-08-28T11:37:00.769Z,1116.00
2018-08-28T11:38:00.806Z,1200.00
2018-08-28T11:39:00.787Z,1068.00
2018-08-28T11:40:00.779Z,1268.00
2018-08-28T11:41:00.947Z,1484.00
2018-08-28T11:42:00.763Z,1500.00
2018-08-28T11:43:00.778Z,1528.00
2018-08-28T11:44:00.769Z,1452.00
2018-08-28T11:45:01.085Z,1368.00
2018-08-28T11:46:05.517Z,1360.00
2018-08-28T11:47:01.719Z,1420.00
2018-08-28T11:48:00.639Z,1376.00
2018-08-28T11:49:00.673Z,1420.00
2018-08-28T11:50:00.706Z,1468.00
2018-08-28T11:51:00.677Z,1480.00
2018-08-28T11:52:00.594Z,1472.00
2018-08-28T11:53:00.615Z,1464.00
2018-08-28T11:54:00.580Z,1452.00
2018-08-28T11:55:00.577Z,1292.00
2018-08-28T11:56:00.602Z,1084.00
2018-08-28T11:57:00.577Z,1320.00
2018-08-28T11:58:00.667Z,1400.00
2018-08-28T11:59:00.517Z,1320.00
2018-08-28T12:00:00.516Z,1260.00
2018-08-28T12:01:00.529Z,1024.00
2018-08-28T12:02:00.617Z,1264.00
2018-08-28T12:03:00.483Z,1376.00
2018-08-28T12:04:00.490Z,1368.00
2018-08-28T12:05:00.533Z,1308.00
2018-08-28T12:06:03.546Z,1312.00
2018-08-28T12:07:00.497Z,976.00
2018-08-28T12:08:03.505Z,1100.00
2018-08-28T12:09:00.419Z,1244.00
2018-08-28T12:10:00.436Z,1192.00
2018-08-28T12:11:00.576Z,1140.00
2018-08-28T12:12:00.403Z,1152.00
2018-08-28T12:13:03.716Z,1116.00
2018-08-28T12:14:00.354Z,1276.00
2018-08-28T12:15:00.343Z,1232.00
2018-08-28T12:16:00.359Z,1232.00
2018-08-28T12:17:00.325Z,1180.00
2018-08-28T12:18:00.343Z,1016.00
2018-08-28T12:19:00.342Z,1080.00
2018-08-28T12:20:00.273Z,1108.00
2018-08-28T12:21:00.545Z,1228.00
2018-08-28T12:22:00.343Z,1200.00
2018-08-28T12:23:00.272Z,1188.00
2018-08-28T12:24:00.261Z,1184.00
2018-08-28T12:25:00.396Z,1184.00
2018-08-28T12:26:00.243Z,1176.00
2018-08-28T12:27:00.486Z,1168.00
2018-08-28T12:28:00.203Z,1156.00
2018-08-28T12:29:00.235Z,1152.00
2018-08-28T12:30:00.214Z,1140.00
2018-08-28T12:31:00.210Z,1132.00
2018-08-28T12:32:01.734Z,1124.00
2018-08-28T12:33:00.225Z,1116.00
2018-08-28T12:34:00.179Z,1108.00
2018-08-28T12:35:00.172Z,1104.00
2018-08-28T12:36:00.120Z,1100.00
2018-08-28T12:37:00.154Z,1096.00
2018-08-28T12:38:00.091Z,1092.00
2018-08-28T12:39:00.121Z,1092.00
2018-08-28T12:40:00.124Z,1080.00
2018-08-28T12:41:00.047Z,1072.00
2018-08-28T12:42:00.058Z,1068.00
2018-08-28T12:43:00.099Z,1072.00
2018-08-28T12:44:00.218Z,1068.00
2018-08-28T12:45:00.004Z,1052.00
2018-08-28T12:46:00.167Z,1060.00
2018-08-28T12:47:04.816Z,1036.00
2018-08-28T12:48:00.355Z,1036.00
2018-08-28T12:49:00.132Z,1028.00
2018-08-28T12:49:59.986Z,1024.00
2018-08-28T12:50:59.991Z,1016.00
2018-08-28T12:52:00.004Z,1012.00
2018-08-28T12:53:00.001Z,1008.00
2018-08-28T12:53:59.948Z,1004.00
2018-08-28T12:55:00.054Z,1000.00
2018-08-28T12:55:59.908Z,992.00
2018-08-28T12:57:02.884Z,988.00
2018-08-28T12:57:59.905Z,984.00
2018-08-28T12:58:59.871Z,980.00
2018-08-28T12:59:59.986Z,972.00
2018-08-28T13:00:59.933Z,972.00
2018-08-28T13:02:00.690Z,960.00
2018-08-28T13:03:00.275Z,948.00
2018-08-28T13:03:59.798Z,952.00
2018-08-28T13:04:59.790Z,952.00
2018-08-28T13:05:59.812Z,940.00
2018-08-28T13:07:00.200Z,936.00
2018-08-28T13:07:59.789Z,936.00
2018-08-28T13:09:21.025Z,932.00
2018-08-28T13:09:59.739Z,944.00
2018-08-28T13:10:59.723Z,924.00
2018-08-28T13:11:59.738Z,916.00
2018-08-28T13:13:00.209Z,912.00
2018-08-28T13:13:59.757Z,904.00
2018-08-28T13:14:59.764Z,900.00
2018-08-28T13:15:59.720Z,892.00
2018-08-28T13:16:59.747Z,888.00
2018-08-28T13:17:59.718Z,888.00
2018-08-28T13:18:59.746Z,884.00
2018-08-28T13:19:59.639Z,876.00
2018-08-28T13:21:00.396Z,868.00
2018-08-28T13:21:59.696Z,864.00
2018-08-28T13:22:59.645Z,864.00
2018-08-28T13:23:59.606Z,860.00
2018-08-28T13:24:59.765Z,852.00
2018-08-28T13:25:59.800Z,848.00
2018-08-28T13:26:59.562Z,848.00
2018-08-28T13:27:59.583Z,844.00
2018-08-28T13:28:59.548Z,840.00
2018-08-28T13:29:59.533Z,844.00
2018-08-28T13:31:02.591Z,836.00
2018-08-28T13:31:59.886Z,832.00
2018-08-28T13:33:00.196Z,828.00
2018-08-28T13:34:02.667Z,820.00
2018-08-28T13:35:00.569Z,816.00
2018-08-28T13:35:59.546Z,812.00
2018-08-28T13:36:59.561Z,812.00
2018-08-28T13:37:59.503Z,804.00
2018-08-28T13:38:59.481Z,800.00
2018-08-28T13:39:59.523Z,796.00
2018-08-28T13:40:59.454Z,796.00
2018-08-28T13:41:59.528Z,792.00
2018-08-28T13:42:59.598Z,792.00
2018-08-28T13:45:20.681Z,780.00
2018-08-28T13:46:17.805Z,772.00
2018-08-28T13:47:22.439Z,768.00
2018-08-28T13:48:28.450Z,760.00
2018-08-28T13:49:17.695Z,756.00
2018-08-28T13:50:17.600Z,748.00
2018-08-28T13:51:17.616Z,740.00
2018-08-28T13:52:17.650Z,728.00
2018-08-28T13:54:28.211Z,712.00
2018-08-28T13:55:28.610Z,704.00
2018-08-28T13:56:27.765Z,700.00
2018-08-28T13:57:27.764Z,688.00
2018-08-28T13:58:27.787Z,684.00
2018-08-28T13:59:48.919Z,688.00
2018-08-28T14:00:27.653Z,684.00
2018-08-28T14:01:27.679Z,684.00
2018-08-28T14:02:27.642Z,684.00
2018-08-28T14:03:27.609Z,676.00
2018-08-28T14:04:27.707Z,676.00
2018-08-28T14:05:27.674Z,676.00
2018-08-28T14:06:27.608Z,684.00
2018-08-28T14:07:27.720Z,676.00
2018-08-28T14:08:27.609Z,664.00
2018-08-28T14:09:27.544Z,656.00
2018-08-28T14:10:27.547Z,656.00
2018-08-28T14:11:27.568Z,652.00
2018-08-28T14:12:27.584Z,644.00
2018-08-28T14:13:27.665Z,648.00
2018-08-28T14:14:27.532Z,644.00
2018-08-28T14:15:27.547Z,636.00
2018-08-28T14:19:07.547Z,628.00
2018-08-28T14:21:15.591Z,632.00
2018-08-28T14:22:18.481Z,628.00
2018-08-28T14:23:15.472Z,628.00
2018-08-28T14:24:15.361Z,620.00
2018-08-28T14:25:15.408Z,616.00
2018-08-28T14:26:15.385Z,616.00
2018-08-28T14:27:15.435Z,612.00
2018-08-28T14:28:15.467Z,604.00
2018-08-28T14:29:15.406Z,604.00
2018-08-28T14:30:15.305Z,600.00
2018-08-28T14:31:18.498Z,596.00
2018-08-28T14:32:17.506Z,592.00
2018-08-28T14:33:36.409Z,592.00
2018-08-28T14:34:18.958Z,588.00
2018-08-28T14:35:15.423Z,588.00
2018-08-28T14:36:15.467Z,584.00
2018-08-28T14:38:24.472Z,576.00
2018-08-28T14:39:24.336Z,572.00
2018-08-28T14:40:24.298Z,568.00
2018-08-28T14:41:24.161Z,568.00
2018-08-28T14:42:24.157Z,564.00
2018-08-28T14:43:24.090Z,556.00
2018-08-28T14:44:24.199Z,552.00
2018-08-28T14:45:24.077Z,552.00
2018-08-28T14:46:24.128Z,548.00
2018-08-28T14:47:24.047Z,544.00
2018-08-28T14:48:28.827Z,540.00
2018-08-28T14:49:24.061Z,536.00
2018-08-28T14:50:24.218Z,536.00
2018-08-28T14:51:24.011Z,532.00
2018-08-28T14:52:24.063Z,524.00
2018-08-28T14:53:24.048Z,520.00
2018-08-28T14:54:23.967Z,520.00
2018-08-28T14:55:23.956Z,520.00
2018-08-28T14:56:23.979Z,516.00
2018-08-28T14:57:23.967Z,512.00
2018-08-28T14:58:24.072Z,508.00
2018-08-28T14:59:23.959Z,504.00
2018-08-28T15:00:23.976Z,504.00
2018-08-28T15:01:24.097Z,492.00
2018-08-28T15:02:23.901Z,492.00
2018-08-28T15:03:23.922Z,492.00
2018-08-28T15:04:23.928Z,484.00
2018-08-28T15:05:24.062Z,484.00
2018-08-28T15:06:23.867Z,480.00
2018-08-28T15:07:23.853Z,480.00
2018-08-28T15:09:34.281Z,476.00
2018-08-28T15:10:33.961Z,472.00
2018-08-28T15:11:34.003Z,464.00
2018-08-28T15:12:33.894Z,464.00
2018-08-28T15:13:33.981Z,464.00
2018-08-28T15:14:33.829Z,460.00
2018-08-28T15:15:33.846Z,456.00
2018-08-28T15:16:33.819Z,448.00
2018-08-28T15:17:33.870Z,444.00
2018-08-28T15:18:33.842Z,444.00
2018-08-28T15:19:33.786Z,440.00
2018-08-28T15:20:33.849Z,440.00
2018-08-28T15:21:36.826Z,432.00
2018-08-28T15:22:33.729Z,432.00
2018-08-28T15:23:33.728Z,428.00
2018-08-28T15:24:33.746Z,428.00
2018-08-28T15:25:33.726Z,416.00
2018-08-28T15:26:33.856Z,416.00
2018-08-28T15:27:33.728Z,412.00
2018-08-28T15:28:33.727Z,404.00
2018-08-28T15:29:33.650Z,408.00
2018-08-28T15:30:33.700Z,404.00
2018-08-28T15:31:33.696Z,404.00
2018-08-28T15:32:33.731Z,408.00
2018-08-28T15:33:36.639Z,400.00
2018-08-28T15:34:33.629Z,400.00
2018-08-28T15:35:33.670Z,396.00
2018-08-28T15:36:33.710Z,392.00
2018-08-28T15:37:33.604Z,388.00
2018-08-28T15:38:33.640Z,388.00
2018-08-28T15:39:33.558Z,380.00
2018-08-28T15:40:33.682Z,380.00
2018-08-28T15:41:33.531Z,376.00
2018-08-28T15:42:33.732Z,376.00
2018-08-28T15:43:33.545Z,376.00
2018-08-28T15:44:33.522Z,368.00
2018-08-28T15:45:33.533Z,368.00
2018-08-28T15:46:33.493Z,368.00
2018-08-28T15:47:33.556Z,368.00
2018-08-28T15:48:38.292Z,364.00
2018-08-28T15:49:33.469Z,360.00
2018-08-28T15:50:33.535Z,360.00
2018-08-28T15:51:33.569Z,356.00
2018-08-28T15:52:33.438Z,356.00
2018-08-28T15:53:33.457Z,356.00
2018-08-28T15:54:33.450Z,356.00
2018-08-28T15:55:33.375Z,352.00
2018-08-28T15:56:33.361Z,344.00
2018-08-28T15:57:33.354Z,344.00
2018-08-28T15:58:33.342Z,344.00
2018-08-28T15:59:33.330Z,336.00
2018-08-28T16:00:33.349Z,336.00
2018-08-28T16:01:33.352Z,332.00
2018-08-28T16:02:33.293Z,332.00
2018-08-28T16:03:33.329Z,324.00
2018-08-28T16:04:33.359Z,324.00
2018-08-28T16:05:33.311Z,320.00
2018-08-28T16:06:33.286Z,320.00
2018-08-28T16:07:33.471Z,320.00
2018-08-28T16:08:33.278Z,312.00
2018-08-28T16:09:33.219Z,312.00
2018-08-28T16:10:33.211Z,312.00
2018-08-28T16:11:33.195Z,308.00
2018-08-28T16:12:33.226Z,304.00
2018-08-28T16:13:33.172Z,304.00
2018-08-28T16:14:33.263Z,304.00
2018-08-28T16:15:33.194Z,300.00
2018-08-28T16:16:33.125Z,300.00
2018-08-28T16:17:33.149Z,296.00
2018-08-28T16:18:33.152Z,292.00
2018-08-28T16:19:33.106Z,288.00
2018-08-28T16:20:33.100Z,288.00
2018-08-28T16:21:33.129Z,288.00
2018-08-28T16:22:33.092Z,284.00
2018-08-28T16:23:33.145Z,284.00
2018-08-28T16:24:33.143Z,284.00
2018-08-28T16:25:33.040Z,284.00
2018-08-28T16:26:33.091Z,280.00
2018-08-28T16:27:33.032Z,276.00
2018-08-28T16:28:33.015Z,276.00
2018-08-28T16:29:33.054Z,276.00
2018-08-28T16:30:33.087Z,268.00
2018-08-28T16:31:33.110Z,268.00
2018-08-28T16:32:32.986Z,268.00
2018-08-28T16:33:32.975Z,264.00
2018-08-28T16:34:33.016Z,260.00
2018-08-28T16:35:32.955Z,260.00
2018-08-28T16:36:32.990Z,260.00
2018-08-28T16:37:32.909Z,256.00
2018-08-28T16:38:32.888Z,252.00
2018-08-28T16:39:32.883Z,252.00
2018-08-28T16:40:32.881Z,248.00
2018-08-28T16:41:32.884Z,244.00
2018-08-28T16:42:32.887Z,240.00
2018-08-28T16:43:32.940Z,236.00
2018-08-28T16:44:32.850Z,236.00
2018-08-28T16:45:32.847Z,232.00
2018-08-28T16:46:32.830Z,228.00
2018-08-28T16:47:32.826Z,224.00
2018-08-28T16:48:32.935Z,220.00
2018-08-28T16:49:37.559Z,216.00
2018-08-28T16:50:32.774Z,216.00
2018-08-28T16:51:32.794Z,212.00
2018-08-28T16:52:32.732Z,208.00
2018-08-28T16:53:32.784Z,204.00
2018-08-28T16:54:32.775Z,200.00
2018-08-28T16:55:32.709Z,200.00
2018-08-28T16:56:32.700Z,196.00
2018-08-28T16:57:32.731Z,192.00
2018-08-28T16:58:32.786Z,188.00
2018-08-28T16:59:32.682Z,188.00
2018-08-28T17:00:32.681Z,184.00
2018-08-28T17:01:32.902Z,180.00
2018-08-28T17:02:32.637Z,180.00
2018-08-28T17:03:33.258Z,176.00
2018-08-28T17:04:32.633Z,172.00
2018-08-28T17:05:32.611Z,168.00
2018-08-28T17:06:32.632Z,164.00
2018-08-28T17:07:32.606Z,164.00
2018-08-28T17:08:32.581Z,164.00
2018-08-28T17:09:32.609Z,160.00
2018-08-28T17:10:32.537Z,156.00
2018-08-28T17:11:32.560Z,156.00
2018-08-28T17:12:32.564Z,152.00
2018-08-28T17:13:32.534Z,152.00
2018-08-28T17:14:32.502Z,144.00
2018-08-28T17:15:32.490Z,144.00
2018-08-28T17:16:32.483Z,140.00
2018-08-28T17:17:32.465Z,140.00
2018-08-28T17:19:41.198Z,132.00
2018-08-28T17:20:40.933Z,128.00
2018-08-28T17:21:40.939Z,124.00
2018-08-28T17:22:40.909Z,124.00
2018-08-28T17:23:40.981Z,120.00
2018-08-28T17:24:40.919Z,116.00
2018-08-28T17:25:40.889Z,116.00
2018-08-28T17:26:40.894Z,112.00
2018-08-28T17:27:40.869Z,108.00
2018-08-28T17:28:40.830Z,108.00
2018-08-28T17:29:40.871Z,104.00
2018-08-28T17:30:40.808Z,104.00
2018-08-28T17:31:40.887Z,100.00
2018-08-28T17:32:40.777Z,96.00
2018-08-28T17:33:40.782Z,96.00
2018-08-28T17:34:40.754Z,92.00
2018-08-28T17:35:40.835Z,88.00
2018-08-28T17:36:40.730Z,88.00
2018-08-28T17:37:40.752Z,84.00
2018-08-28T17:38:40.782Z,84.00
2018-08-28T17:39:40.727Z,80.00
2018-08-28T17:40:40.743Z,76.00
2018-08-28T17:41:40.740Z,72.00
2018-08-28T17:42:40.682Z,72.00
2018-08-28T17:43:40.663Z,72.00
2018-08-28T17:44:40.676Z,68.00
2018-08-28T17:45:40.692Z,64.00
2018-08-28T17:46:40.610Z,64.00
2018-08-28T17:47:40.772Z,60.00
2018-08-28T17:49:54.366Z,56.00
2018-08-28T17:50:49.496Z,56.00
2018-08-28T17:51:49.450Z,52.00
2018-08-28T17:52:49.485Z,52.00
2018-08-28T17:53:49.436Z,48.00
2018-08-28T17:54:49.427Z,48.00
2018-08-28T17:55:49.372Z,48.00
2018-08-28T17:56:49.536Z,44.00
2018-08-28T17:57:49.342Z,40.00
2018-08-28T17:58:49.425Z,40.00
2018-08-28T17:59:49.394Z,40.00
2018-08-28T18:00:49.312Z,36.00
2018-08-28T18:01:49.322Z,36.00
2018-08-28T18:02:49.342Z,36.00
2018-08-28T18:03:49.322Z,32.00
2018-08-28T18:04:49.349Z,32.00
2018-08-28T18:05:49.288Z,28.00
2018-08-28T18:06:49.258Z,28.00
2018-08-28T18:07:49.256Z,24.00
2018-08-28T18:08:49.315Z,24.00
2018-08-28T18:09:49.223Z,24.00
2018-08-28T18:10:49.407Z,20.00
2018-08-28T18:11:49.248Z,20.00
2018-08-28T18:12:49.242Z,20.00
2018-08-28T18:13:49.218Z,20.00
2018-08-28T18:14:49.164Z,16.00
2018-08-28T18:15:49.170Z,16.00
2018-08-28T18:16:49.862Z,16.00
2018-08-28T18:17:49.201Z,16.00
2018-08-28T18:18:49.136Z,16.00
2018-08-28T18:19:49.234Z,12.00
2018-08-28T18:20:49.121Z,12.00
2018-08-28T18:21:49.271Z,8.00
2018-08-28T18:22:49.175Z,12.00
2018-08-28T18:23:49.195Z,8.00
2018-08-28T18:24:49.071Z,8.00
2018-08-28T18:25:49.057Z,8.00
2018-08-28T18:26:49.087Z,8.00
2018-08-28T18:27:49.083Z,4.00
2018-08-28T18:28:49.056Z,4.00
2018-08-28T18:29:49.003Z,4.00
2018-08-28T18:30:49.253Z,4.00
2018-08-28T18:31:48.998Z,4.00
2018-08-28T18:32:49.098Z,4.00
2018-08-28T18:33:49.086Z,0.00
2018-08-28T18:34:49.033Z,4.00
2018-08-28T18:35:49.071Z,0.00
2018-08-28T18:36:49.023Z,4.00
2018-08-28T18:37:51.998Z,4.00
2018-08-28T18:38:49.118Z,0.00
2018-08-28T18:39:49.019Z,0.00
2018-08-28T18:40:49.029Z,4.00
2018-08-28T18:41:48.921Z,0.00
2018-08-28T18:42:48.914Z,0.00
2018-08-28T18:43:49.254Z,0.00
2018-08-28T18:44:49.239Z,0.00
2018-08-28T18:45:49.061Z,0.00
2018-08-28T18:46:48.893Z,0.00
2018-08-28T18:47:48.861Z,0.00
2018-08-28T18:48:48.808Z,0.00
2018-08-28T18:51:02.260Z,0.00
2018-08-28T18:51:59.202Z,0.00
2018-08-28T18:52:57.238Z,0.00
2018-08-28T18:55:06.204Z,0.00
2018-08-28T18:56:06.433Z,0.00
2018-08-28T18:57:06.902Z,0.00
2018-08-28T18:58:05.926Z,0.00
2018-08-28T18:59:06.036Z,0.00
2018-08-28T19:00:06.036Z,0.00
2018-08-28T19:01:05.977Z,0.00
2018-08-28T19:03:15.418Z,0.00
2018-08-28T19:04:15.311Z,0.00
2018-08-28T19:05:15.456Z,0.00
2018-08-28T19:06:14.944Z,0.00
2018-08-28T19:07:15.201Z,0.00
2018-08-28T19:08:35.887Z,0.00
2018-08-28T19:09:21.682Z,0.00
2018-08-28T19:10:14.993Z,0.00
2018-08-28T19:11:18.134Z,0.00
2018-08-28T19:12:16.536Z,0.00
2018-08-28T19:13:14.824Z,0.00
2018-08-28T19:14:15.041Z,0.00
2018-08-28T19:15:14.807Z,0.00
2018-08-28T19:16:14.854Z,0.00
2018-08-28T19:17:14.859Z,0.00
2018-08-28T19:18:14.804Z,0.00
2018-08-28T19:19:17.840Z,0.00
2018-08-28T19:20:14.808Z,0.00
2018-08-28T19:21:17.837Z,0.00
2018-08-28T19:22:14.853Z,0.00
2018-08-28T19:23:15.031Z,0.00
2018-08-28T19:24:14.768Z,0.00
2018-08-28T19:25:17.721Z,0.00
2018-08-28T19:26:14.755Z,0.00
2018-08-28T19:27:14.754Z,0.00
2018-08-28T19:28:14.710Z,0.00
2018-08-28T19:29:14.687Z,0.00
2018-08-28T19:30:14.701Z,0.00
2018-08-28T19:31:14.986Z,0.00
2018-08-28T19:32:14.625Z,0.00
2018-08-28T19:33:14.617Z,0.00
2018-08-28T19:34:14.633Z,0.00
2018-08-28T19:35:14.642Z,0.00
2018-08-28T19:36:14.639Z,0.00
2018-08-28T19:37:14.633Z,0.00
2018-08-28T19:38:14.614Z,0.00
2018-08-28T19:39:14.627Z,0.00
2018-08-28T19:40:14.584Z,0.00
2018-08-28T19:41:14.539Z,0.00
2018-08-28T19:42:14.534Z,0.00
2018-08-28T19:43:14.531Z,0.00
2018-08-28T19:44:14.565Z,0.00
2018-08-28T19:45:14.474Z,0.00
2018-08-28T19:46:14.481Z,0.00
2018-08-28T19:47:14.486Z,0.00
2018-08-28T19:48:14.497Z,0.00
2018-08-28T19:49:14.424Z,0.00
2018-08-28T19:50:14.419Z,0.00
2018-08-28T19:51:19.342Z,0.00
2018-08-28T19:52:14.406Z,0.00
2018-08-28T19:53:14.447Z,0.00
2018-08-28T19:54:14.419Z,0.00
2018-08-28T19:55:14.375Z,0.00
2018-08-28T19:56:14.369Z,0.00
2018-08-28T19:57:14.392Z,0.00
2018-08-28T19:58:14.389Z,0.00
2018-08-28T19:59:14.332Z,0.00
2018-08-28T20:00:14.378Z,0.00
2018-08-28T20:01:14.345Z,0.00
2018-08-28T20:02:14.298Z,0.00
2018-08-28T20:03:14.266Z,0.00
2018-08-28T20:04:14.297Z,0.00
2018-08-28T20:05:14.281Z,0.00
2018-08-28T20:06:14.306Z,0.00
2018-08-28T20:07:14.277Z,0.00
2018-08-28T20:08:14.232Z,0.00
2018-08-28T20:09:14.239Z,0.00
2018-08-28T20:10:14.218Z,0.00
2018-08-28T20:11:14.193Z,0.00
2018-08-28T20:12:14.254Z,0.00
2018-08-28T20:13:14.162Z,0.00
2018-08-28T20:14:14.186Z,0.00
2018-08-28T20:15:14.154Z,0.00
2018-08-28T20:16:14.189Z,0.00
2018-08-28T20:17:14.176Z,0.00
2018-08-28T20:18:14.159Z,0.00
2018-08-28T20:19:14.115Z,0.00
2018-08-28T20:20:14.100Z,0.00
2018-08-28T20:21:14.108Z,0.00
2018-08-28T20:22:14.090Z,0.00
2018-08-28T20:23:14.100Z,0.00
2018-08-28T20:24:14.157Z,0.00
2018-08-28T20:25:14.096Z,0.00
2018-08-28T20:26:14.058Z,0.00
2018-08-28T20:27:14.016Z,0.00
2018-08-28T20:28:14.274Z,0.00
2018-08-28T20:29:13.991Z,0.00
2018-08-28T20:30:14.065Z,0.00
2018-08-28T20:31:13.987Z,0.00
2018-08-28T20:32:14.004Z,0.00
2018-08-28T20:33:13.956Z,0.00
2018-08-28T20:34:13.993Z,0.00
2018-08-28T20:35:13.978Z,0.00
2018-08-28T20:36:13.953Z,0.00
2018-08-28T20:37:13.971Z,0.00
2018-08-28T20:38:13.897Z,0.00
2018-08-28T20:39:13.889Z,0.00
2018-08-28T20:40:13.886Z,0.00
2018-08-28T20:41:13.889Z,0.00
2018-08-28T20:42:13.922Z,0.00
2018-08-28T20:43:13.857Z,0.00
2018-08-28T20:44:13.856Z,0.00
2018-08-28T20:45:13.836Z,0.00
2018-08-28T20:46:13.836Z,0.00
2018-08-28T20:47:13.798Z,0.00
2018-08-28T20:48:13.839Z,0.00
2018-08-28T20:49:13.804Z,0.00
2018-08-28T20:50:13.765Z,0.00
2018-08-28T20:51:13.753Z,0.00
2018-08-28T20:52:18.629Z,0.00
2018-08-28T20:53:14.833Z,0.00
2018-08-28T20:54:13.710Z,0.00
2018-08-28T20:55:13.707Z,0.00
2018-08-28T20:56:13.724Z,0.00
2018-08-28T20:57:13.682Z,0.00
2018-08-28T20:58:13.677Z,0.00
2018-08-28T20:59:13.706Z,0.00
2018-08-28T21:00:13.659Z,0.00
2018-08-28T21:01:13.646Z,0.00
2018-08-28T21:02:13.625Z,0.00
2018-08-28T21:03:13.642Z,0.00
2018-08-28T21:04:13.639Z,0.00
2018-08-28T21:05:13.598Z,0.00
2018-08-28T21:06:13.613Z,0.00
2018-08-28T21:07:13.588Z,0.00
2018-08-28T21:08:13.556Z,0.00
2018-08-28T21:09:13.546Z,0.00
2018-08-28T21:10:13.615Z,0.00
2018-08-28T21:11:13.539Z,0.00
2018-08-28T21:12:13.545Z,0.00
2018-08-28T21:13:13.571Z,0.00
2018-08-28T21:14:13.529Z,0.00
2018-08-28T21:15:13.504Z,0.00
2018-08-28T21:16:13.518Z,0.00
2018-08-28T21:17:13.505Z,0.00
2018-08-28T21:18:13.450Z,0.00
2018-08-28T21:19:13.431Z,0.00
2018-08-28T21:20:13.437Z,0.00
2018-08-28T21:21:13.430Z,0.00
2018-08-28T21:22:13.444Z,0.00
2018-08-28T21:23:13.403Z,0.00
2018-08-28T21:24:13.426Z,0.00
2018-08-28T21:25:13.383Z,0.00
2018-08-28T21:26:13.383Z,0.00
2018-08-28T21:27:13.359Z,0.00
2018-08-28T21:28:13.390Z,0.00
2018-08-28T21:29:13.374Z,0.00
2018-08-28T21:30:13.318Z,0.00
2018-08-28T21:31:13.319Z,0.00